Time;durP1;ratioP1;P1;durP2;ratioP2;P2;SDS_P1;SDS_P2;PMS_P1;PMS_P2;Temp;Humidity;BMP_temperature;BMP_pressure;BME280_temperature;BME280_humidity;BME280_pressure;Samples;Min_cycle;Max_cycle;Signal;HPM_P1;HPM_P2
2022/11/06 00:00:24;;;;;;;;;;;;;;;21.28;59.68;101395.25;5058752;28;3111;-63
2022/11/06 00:02:50;;;;;;;;;;;;;;;21.30;59.50;101403.25;5056149;28;2935;-63
2022/11/06 00:08:02;;;;;;;;;;;;;;;21.27;59.47;101405.28;5069889;28;3060;-63
2022/11/06 00:10:28;;;;;;;;;;;;;;;21.30;59.37;101391.72;5068610;28;1695;-63
2022/11/06 00:12:55;;;;;;;;;;;;;;;21.29;59.66;101401.75;5068661;28;2352;-63
2022/11/06 00:15:21;;;;;;;;;;;;;;;21.27;59.62;101401.66;5062426;28;2993;-63
2022/11/06 00:17:48;;;;;;;;;;;;;;;21.26;59.63;101398.03;5066636;28;2806;-63
2022/11/06 00:20:15;;;;;;;;;;;;;;;21.29;59.55;101390.97;5067544;28;2169;-63
2022/11/06 00:22:41;;;;;;;;;;;;;;;21.26;59.45;101374.25;5067824;28;1897;-66
2022/11/06 00:25:08;;;;;;;;;;;;;;;21.27;59.58;101373.59;5068434;28;1723;-62
2022/11/06 00:27:35;;;;;;;;;;;;;;;21.27;59.62;101387.25;5065467;28;2172;-62
2022/11/06 00:30:03;;;;;;;;;;;;;;;21.24;59.46;101385.66;5066657;28;1643;-62
2022/11/06 00:32:29;;;;;;;;;;;;;;;21.25;59.76;101385.00;5068603;28;2379;-62
2022/11/06 00:34:55;;;;;;;;;;;;;;;21.25;59.44;101385.00;5072866;28;1647;-62
2022/11/06 00:37:22;;;;;;;;;;;;;;;21.25;59.45;101387.13;5071313;28;1674;-62
2022/11/06 00:39:48;;;;;;;;;;;;;;;21.21;59.39;101384.81;5070014;28;1987;-62
2022/11/06 00:42:14;;;;;;;;;;;;;;;21.20;59.71;101383.31;5072549;28;1639;-62
2022/11/06 00:44:40;;;;;;;;;;;;;;;21.21;59.55;101384.03;5069566;28;1870;-62
2022/11/06 00:47:07;;;;;;;;;;;;;;;21.20;59.70;101388.31;5071826;28;1690;-62
2022/11/06 00:49:33;;;;;;;;;;;;;;;21.18;59.74;101385.34;5071007;28;1942;-62
2022/11/06 00:52:00;;;;;;;;;;;;;;;21.18;59.55;101391.09;5070698;28;1766;-62
2022/11/06 00:54:26;;;;;;;;;;;;;;;21.18;59.68;101386.06;5069394;28;2083;-62
2022/11/06 00:56:52;;;;;;;;;;;;;;;21.19;59.46;101386.81;5067992;28;1707;-62
2022/11/06 00:59:19;;;;;;;;;;;;;;;21.17;59.58;101387.47;5071713;28;1795;-62
2022/11/06 01:01:45;;;;;;;;;;;;;;;21.19;59.38;101387.59;5068181;28;1774;-63
2022/11/06 01:04:11;;;;;;;;;;;;;;;21.14;59.66;101391.63;5067524;28;1885;-62
2022/11/06 01:06:39;;;;;;;;;;;;;;;21.11;59.67;101387.91;5066309;28;1965;-63
2022/11/06 01:09:05;;;;;;;;;;;;;;;21.13;59.52;101390.16;5068203;28;1981;-62
2022/11/06 01:11:32;;;;;;;;;;;;;;;21.12;59.54;101377.16;5069230;28;1754;-63
2022/11/06 01:14:18;;;;;;;;;;;;;;;21.15;59.74;101383.75;5068363;28;1768;-63
2022/11/06 01:16:44;;;;;;;;;;;;;;;21.15;59.80;101383.75;5065612;28;1640;-63
2022/11/06 01:19:11;;;;;;;;;;;;;;;21.13;59.71;101382.25;5070763;28;1639;-62
2022/11/06 01:21:38;;;;;;;;;;;;;;;21.14;59.42;101374.34;5070284;28;1651;-62
2022/11/06 01:24:05;;;;;;;;;;;;;;;21.12;59.60;101375.00;5072113;28;1690;-63
2022/11/06 01:26:32;;;;;;;;;;;;;;;21.09;59.71;101378.41;5069023;28;1681;-63
2022/11/06 01:29:09;;;;;;;;;;;;;;;21.11;59.67;101372.75;5079297;28;1989;-62
2022/11/06 01:31:35;;;;;;;;;;;;;;;21.12;59.29;101357.00;5070603;28;1869;-62
2022/11/06 01:34:02;;;;;;;;;;;;;;;21.11;59.29;101353.34;5060819;28;1624;-62
2022/11/06 01:36:28;;;;;;;;;;;;;;;21.11;59.24;101352.59;5063919;28;2016;-62
2022/11/06 01:38:55;;;;;;;;;;;;;;;21.13;59.52;101350.56;5064847;28;1861;-62
2022/11/06 01:41:23;;;;;;;;;;;;;;;21.11;59.60;101346.84;5066213;28;1726;-63
2022/11/06 01:43:50;;;;;;;;;;;;;;;21.10;59.56;101339.59;5068252;28;1640;-62
2022/11/06 01:46:17;;;;;;;;;;;;;;;21.09;59.48;101341.72;5066540;28;1639;-62
2022/11/06 01:48:57;;;;;;;;;;;;;;;21.10;59.40;101342.47;5065603;28;1910;-62
2022/11/06 01:51:23;;;;;;;;;;;;;;;21.09;59.52;101326.56;5066633;28;1663;-62
2022/11/06 01:53:50;;;;;;;;;;;;;;;21.07;59.39;101320.72;5067594;28;1918;-62
2022/11/06 01:56:16;;;;;;;;;;;;;;;21.10;59.29;101322.31;5059791;28;1771;-62
2022/11/06 01:58:43;;;;;;;;;;;;;;;21.07;59.35;101324.38;5067589;28;1728;-63
2022/11/06 02:01:11;;;;;;;;;;;;;;;21.07;59.53;101332.22;5065698;28;1631;-62
2022/11/06 02:03:37;;;;;;;;;;;;;;;21.09;59.36;101329.47;5063864;28;1910;-63
2022/11/06 02:06:03;;;;;;;;;;;;;;;21.05;59.37;101337.88;5066898;28;1623;-62
2022/11/06 02:08:30;;;;;;;;;;;;;;;21.04;59.77;101327.78;5071577;28;1975;-62
2022/11/06 02:10:56;;;;;;;;;;;;;;;21.04;59.26;101327.78;5062682;28;1869;-62
2022/11/06 02:13:46;;;;;;;;;;;;;;;21.04;59.53;101317.00;5066504;28;1711;-63
2022/11/06 02:16:20;;;;;;;;;;;;;;;21.07;59.21;101323.59;5061435;28;1694;-62
2022/11/06 02:18:53;;;;;;;;;;;;;;;21.06;59.44;101313.47;5062058;28;1709;-62
2022/11/06 02:21:38;;;;;;;;;;;;;;;21.04;59.25;101307.63;5069270;28;1870;-63
2022/11/06 02:24:23;;;;;;;;;;;;;;;21.04;59.28;101314.09;5069108;28;1822;-63
2022/11/06 02:26:58;;;;;;;;;;;;;;;21.04;59.54;101307.63;5066133;28;1680;-62
2022/11/06 02:29:28;;;;;;;;;;;;;;;21.01;59.45;101309.66;5061540;28;1914;-62
2022/11/06 02:31:55;;;;;;;;;;;;;;;21.03;59.19;101317.66;5063703;28;1662;-62
2022/11/06 02:34:22;;;;;;;;;;;;;;;21.00;59.09;101313.91;5069376;28;1712;-62
2022/11/06 02:36:53;;;;;;;;;;;;;;;21.00;59.25;101308.13;5067043;28;1711;-63
2022/11/06 02:39:20;;;;;;;;;;;;;;;21.00;59.50;101313.16;5067706;28;1782;-62
2022/11/06 02:41:47;;;;;;;;;;;;;;;21.01;59.24;101314.66;5064919;28;1837;-62
2022/11/06 02:44:14;;;;;;;;;;;;;;;21.03;59.27;101318.38;5064835;28;1567;-62
2022/11/06 02:46:42;;;;;;;;;;;;;;;21.02;59.00;101310.38;5065739;28;1858;-62
2022/11/06 02:49:24;;;;;;;;;;;;;;;20.97;59.17;101303.66;5067343;28;1910;-62
2022/11/06 02:51:52;;;;;;;;;;;;;;;20.92;59.38;101302.72;5065923;28;1612;-62
2022/11/06 02:54:18;;;;;;;;;;;;;;;20.92;59.52;101308.47;5066738;28;1870;-62
2022/11/06 02:56:45;;;;;;;;;;;;;;;20.95;59.23;101305.72;5066256;28;2068;-62
2022/11/06 02:59:13;;;;;;;;;;;;;;;20.95;59.27;101299.94;5066715;28;1643;-63
2022/11/06 03:01:47;;;;;;;;;;;;;;;20.95;59.43;101299.94;5051372;28;2013;-62
2022/11/06 03:04:21;;;;;;;;;;;;;;;20.91;59.28;101307.00;5063678;28;1686;-63
2022/11/06 03:06:50;;;;;;;;;;;;;;;20.93;59.33;101301.31;5066492;28;1670;-62
2022/11/06 03:09:19;;;;;;;;;;;;;;;20.95;59.01;101303.56;5067815;28;1963;-63
2022/11/06 03:11:48;;;;;;;;;;;;;;;20.95;59.06;101291.31;5067081;28;1673;-62
2022/11/06 03:14:18;;;;;;;;;;;;;;;20.95;59.07;101297.06;5065179;28;1664;-62
2022/11/06 03:16:50;;;;;;;;;;;;;;;20.94;59.12;101293.44;5067325;28;1889;-62
2022/11/06 03:19:23;;;;;;;;;;;;;;;20.96;59.00;101295.66;5075157;28;1770;-62
2022/11/06 03:21:52;;;;;;;;;;;;;;;20.94;59.24;101299.22;5073923;28;1754;-63
2022/11/06 03:24:22;;;;;;;;;;;;;;;20.95;59.06;101294.19;5077634;28;1920;-62
2022/11/06 03:26:56;;;;;;;;;;;;;;;20.95;58.93;101302.84;5075078;28;1807;-62
2022/11/06 03:29:28;;;;;;;;;;;;;;;20.95;58.89;101299.94;5076704;28;1910;-62
2022/11/06 03:31:55;;;;;;;;;;;;;;;20.92;59.23;101296.22;5073908;28;4737;-62
2022/11/06 03:34:23;;;;;;;;;;;;;;;20.93;59.02;101291.94;5076975;28;1757;-63
2022/11/06 03:36:56;;;;;;;;;;;;;;;20.95;58.96;101291.31;5073945;28;1785;-62
2022/11/06 03:39:24;;;;;;;;;;;;;;;20.96;59.06;101290.69;5075206;28;1633;-62
2022/11/06 03:41:59;;;;;;;;;;;;;;;20.98;58.77;101287.13;5078769;28;2328;-62
2022/11/06 03:44:26;;;;;;;;;;;;;;;20.98;58.84;101284.25;5077534;28;1743;-62
2022/11/06 03:46:53;;;;;;;;;;;;;;;21.00;58.74;101284.38;5079599;28;1698;-62
2022/11/06 03:49:21;;;;;;;;;;;;;;;21.03;58.89;101283.84;5079805;28;1983;-62
2022/11/06 03:51:57;;;;;;;;;;;;;;;21.03;58.91;101286.72;5078676;28;1635;-62
2022/11/06 03:54:28;;;;;;;;;;;;;;;21.04;58.51;101287.44;5079261;28;1869;-62
2022/11/06 03:56:56;;;;;;;;;;;;;;;21.04;58.63;101284.56;5078872;28;1802;-62
2022/11/06 03:59:25;;;;;;;;;;;;;;;21.04;58.85;101284.56;5078775;28;1916;-61
2022/11/06 04:01:52;;;;;;;;;;;;;;;21.05;58.86;101291.81;5080325;28;2124;-62
2022/11/06 04:04:20;;;;;;;;;;;;;;;21.05;58.61;101291.81;5082292;28;1790;-62
2022/11/06 04:06:55;;;;;;;;;;;;;;;21.06;58.46;101296.19;5080281;28;1611;-62
2022/11/06 04:14:51;;;;;;;;;;;;;;;21.08;58.69;101273.28;5081015;28;1775;-62
2022/11/06 04:17:18;;;;;;;;;;;;;;;21.08;58.47;101279.03;5078970;28;1674;-62
2022/11/06 04:19:45;;;;;;;;;;;;;;;21.08;58.71;101274.00;5080061;28;1767;-62
2022/11/06 04:22:21;;;;;;;;;;;;;;;21.09;58.74;101274.75;5079655;28;1723;-62
2022/11/06 04:27:47;;;;;;;;;;;;;;;21.09;58.69;101275.47;5083030;28;1974;-61
2022/11/06 04:30:13;;;;;;;;;;;;;;;21.11;58.50;101272.72;5081512;28;1918;-62
2022/11/06 04:32:44;;;;;;;;;;;;;;;21.11;58.56;101266.94;5084584;28;1858;-62
2022/11/06 04:35:13;;;;;;;;;;;;;;;21.10;58.78;101271.22;5080854;28;1784;-62
2022/11/06 04:37:45;;;;;;;;;;;;;;;21.10;58.48;101259.72;5081917;28;1810;-62
2022/11/06 04:40:25;;;;;;;;;;;;;;;21.11;58.53;101260.44;5085406;28;2197;-62
2022/11/06 04:42:58;;;;;;;;;;;;;;;21.14;58.60;101259.16;5078149;28;1920;-62
2022/11/06 04:45:26;;;;;;;;;;;;;;;21.13;58.65;101264.16;5075767;28;1944;-62
2022/11/06 04:47:53;;;;;;;;;;;;;;;21.14;58.51;101270.66;5072246;28;1894;-62
2022/11/06 04:50:21;;;;;;;;;;;;;;;21.14;58.87;101259.16;5070357;28;1948;-62
2022/11/06 04:52:47;;;;;;;;;;;;;;;21.12;58.91;101256.19;5077582;28;1565;-62
2022/11/06 04:55:13;;;;;;;;;;;;;;;21.13;58.61;101257.69;5073228;28;1620;-62
2022/11/06 04:57:40;;;;;;;;;;;;;;;21.12;58.63;101251.19;5065177;28;1648;-62
2022/11/06 05:00:06;;;;;;;;;;;;;;;21.12;58.79;101253.31;5073533;28;1684;-62
2022/11/06 05:02:32;;;;;;;;;;;;;;;21.12;58.43;101256.19;5079181;28;1703;-62
2022/11/06 05:04:59;;;;;;;;;;;;;;;21.13;58.70;101257.69;5065482;28;1619;-62
2022/11/06 05:07:25;;;;;;;;;;;;;;;21.14;58.72;101259.16;5066278;28;1953;-62
2022/11/06 05:09:51;;;;;;;;;;;;;;;21.15;58.45;101257.03;5067242;28;1973;-62
2022/11/06 05:12:18;;;;;;;;;;;;;;;21.15;58.53;101257.78;5071248;28;1687;-62
2022/11/06 05:14:44;;;;;;;;;;;;;;;21.14;58.71;101256.28;5065872;28;1674;-62
2022/11/06 05:17:10;;;;;;;;;;;;;;;21.16;58.67;101256.38;5068608;28;1659;-62
2022/11/06 05:19:37;;;;;;;;;;;;;;;21.17;58.54;101252.13;5066526;28;1818;-62
2022/11/06 05:24:48;;;;;;;;;;;;;;;21.14;58.79;101241.88;5070302;28;1870;-62
2022/11/06 05:27:14;;;;;;;;;;;;;;;21.16;58.37;101244.84;5068223;28;1759;-62
2022/11/06 05:29:40;;;;;;;;;;;;;;;21.17;58.64;101245.63;5070771;28;1938;-62
2022/11/06 05:32:07;;;;;;;;;;;;;;;21.13;58.88;101251.91;5072607;28;1573;-62
2022/11/06 05:34:33;;;;;;;;;;;;;;;21.14;58.69;101259.16;5067319;28;1774;-62
2022/11/06 05:36:59;;;;;;;;;;;;;;;21.11;58.64;101255.44;5064628;28;1861;-62
2022/11/06 05:39:26;;;;;;;;;;;;;;;21.11;58.99;101249.66;5069831;28;1639;-62
2022/11/06 05:41:52;;;;;;;;;;;;;;;21.12;58.62;101244.69;5068405;28;1861;-62
2022/11/06 05:44:18;;;;;;;;;;;;;;;21.13;58.62;101243.28;5066850;28;1865;-62
2022/11/06 05:46:45;;;;;;;;;;;;;;;21.13;58.64;101249.03;5067735;28;1790;-62
2022/11/06 05:49:15;;;;;;;;;;;;;;;21.16;58.71;101250.63;5071412;28;1914;-62
2022/11/06 05:51:41;;;;;;;;;;;;;;;21.17;58.67;101252.13;5072215;28;1779;-62
2022/11/06 05:54:08;;;;;;;;;;;;;;;21.18;58.72;101247.09;5068350;28;1847;-62
2022/11/06 05:56:34;;;;;;;;;;;;;;;21.13;58.81;101249.78;5068023;28;1608;-62
2022/11/06 05:59:00;;;;;;;;;;;;;;;21.17;58.47;101249.25;5068628;28;1712;-62
2022/11/06 06:01:27;;;;;;;;;;;;;;;21.13;58.59;101246.91;5068277;28;2018;-62
2022/11/06 06:03:53;;;;;;;;;;;;;;;21.14;58.56;101241.88;5069392;28;1873;-62
2022/11/06 06:06:19;;;;;;;;;;;;;;;21.14;58.63;101244.75;5070547;28;1615;-62
2022/11/06 06:08:46;;;;;;;;;;;;;;;21.16;58.81;101241.97;5071424;28;1591;-62
2022/11/06 06:11:12;;;;;;;;;;;;;;;21.16;58.58;101241.97;5066533;28;1961;-62
2022/11/06 06:13:38;;;;;;;;;;;;;;;21.20;58.48;101239.31;5063530;28;1854;-62
2022/11/06 06:16:05;;;;;;;;;;;;;;;21.20;58.48;101239.31;5067176;28;1648;-62
2022/11/06 06:18:32;;;;;;;;;;;;;;;21.20;58.54;101236.44;5069902;28;1724;-62
2022/11/06 06:20:58;;;;;;;;;;;;;;;21.20;58.48;101242.19;5071090;28;1636;-62
2022/11/06 06:23:24;;;;;;;;;;;;;;;21.17;58.67;101252.13;5069827;28;1877;-62
2022/11/06 06:25:51;;;;;;;;;;;;;;;21.21;58.23;101251.56;5069947;28;1595;-62
2022/11/06 06:28:17;;;;;;;;;;;;;;;21.20;58.51;101259.47;5068970;28;1620;-62
2022/11/06 06:30:43;;;;;;;;;;;;;;;21.20;58.40;101267.38;5066942;28;2501;-62
2022/11/06 06:33:10;;;;;;;;;;;;;;;21.21;58.35;101269.59;5070235;28;1611;-62
2022/11/06 06:35:36;;;;;;;;;;;;;;;21.21;58.51;101263.09;5065040;28;1632;-62
2022/11/06 06:38:03;;;;;;;;;;;;;;;21.22;58.36;101270.34;5072949;28;1576;-62
2022/11/06 06:40:29;;;;;;;;;;;;;;;21.18;58.53;101276.63;5073719;28;2010;-62
2022/11/06 06:42:56;;;;;;;;;;;;;;;21.18;58.51;101270.88;5074666;28;1793;-62
2022/11/06 06:45:22;;;;;;;;;;;;;;;21.17;58.55;101269.41;5075251;28;1817;-62
2022/11/06 06:47:49;;;;;;;;;;;;;;;21.18;58.44;101270.88;5072072;28;1815;-62
2022/11/06 06:50:15;;;;;;;;;;;;;;;21.17;58.63;101263.63;5074803;28;1914;-62
2022/11/06 06:52:41;;;;;;;;;;;;;;;21.16;58.61;101267.16;5074538;28;1683;-62
2022/11/06 06:55:07;;;;;;;;;;;;;;;21.16;58.50;101273.66;5074557;28;1591;-62
2022/11/06 06:57:34;;;;;;;;;;;;;;;21.17;58.70;101272.28;5070998;28;1584;-62
2022/11/06 07:00:00;;;;;;;;;;;;;;;21.18;58.35;101270.88;5074599;28;1833;-62
2022/11/06 07:02:27;;;;;;;;;;;;;;;21.20;58.41;101268.09;5072870;28;1564;-62
2022/11/06 07:04:53;;;;;;;;;;;;;;;21.19;58.69;101269.50;5075531;28;1564;-62
2022/11/06 07:07:19;;;;;;;;;;;;;;;21.20;58.42;101267.38;5074566;28;1567;-62
2022/11/06 07:09:46;;;;;;;;;;;;;;;21.20;58.71;101262.34;5076416;28;1906;-62
2022/11/06 07:12:12;;;;;;;;;;;;;;;21.19;58.67;101269.50;5075382;28;1583;-62
2022/11/06 07:14:38;;;;;;;;;;;;;;;21.19;58.52;101281.03;5076040;28;1873;-61
2022/11/06 07:17:05;;;;;;;;;;;;;;;21.19;58.56;101272.38;5076479;28;1643;-62
2022/11/06 07:19:31;;;;;;;;;;;;;;;21.18;58.69;101279.53;5075427;28;1832;-62
2022/11/06 07:21:57;;;;;;;;;;;;;;;21.18;58.53;101268.00;5078520;28;1699;-62
2022/11/06 07:24:24;;;;;;;;;;;;;;;21.19;58.48;101272.38;5078517;28;1712;-61
2022/11/06 07:26:50;;;;;;;;;;;;;;;21.19;58.59;101269.50;5074975;28;1872;-61
2022/11/06 07:29:16;;;;;;;;;;;;;;;21.19;58.66;101272.38;5078969;28;1914;-62
2022/11/06 07:31:43;;;;;;;;;;;;;;;21.20;58.49;101270.25;5078373;28;2384;-61
2022/11/06 07:34:09;;;;;;;;;;;;;;;21.19;58.58;101272.38;5079903;28;1602;-62
2022/11/06 07:36:35;;;;;;;;;;;;;;;21.18;58.66;101264.38;5078461;28;1639;-62
2022/11/06 07:39:02;;;;;;;;;;;;;;;21.18;58.74;101275.91;5081675;28;1564;-62
2022/11/06 07:41:28;;;;;;;;;;;;;;;21.17;58.55;101265.78;5060893;28;1719;-62
2022/11/06 07:43:54;;;;;;;;;;;;;;;21.18;58.54;101278.78;5082812;28;1647;-62
2022/11/06 07:46:21;;;;;;;;;;;;;;;21.19;58.65;101272.38;5079946;28;1691;-61
2022/11/06 07:48:47;;;;;;;;;;;;;;;21.18;58.69;101270.13;5079152;28;1632;-62
2022/11/06 07:51:13;;;;;;;;;;;;;;;21.19;58.47;101271.63;5075173;28;1913;-62
2022/11/06 07:53:40;;;;;;;;;;;;;;;21.20;58.42;101261.59;5080726;28;1957;-62
2022/11/06 07:56:07;;;;;;;;;;;;;;;21.21;58.67;101257.31;5077184;28;1797;-62
2022/11/06 07:58:33;;;;;;;;;;;;;;;21.20;58.45;101256.59;5078756;28;1843;-62
2022/11/06 08:01:00;;;;;;;;;;;;;;;21.23;58.49;101260.31;5080098;28;2050;-62
2022/11/06 08:03:28;;;;;;;;;;;;;;;21.23;58.29;101254.53;5080156;28;1778;-62
2022/11/06 08:05:55;;;;;;;;;;;;;;;21.22;58.74;101268.19;5080643;28;1633;-62
2022/11/06 08:08:22;;;;;;;;;;;;;;;21.22;58.52;101250.94;5083778;28;1857;-61
2022/11/06 08:10:50;;;;;;;;;;;;;;;21.21;58.58;101240.81;5081559;28;1985;-62
2022/11/06 08:13:17;;;;;;;;;;;;;;;21.21;58.26;101246.56;5082478;28;1572;-62
2022/11/06 08:15:43;;;;;;;;;;;;;;;21.21;58.38;101240.81;5084289;28;1861;-62
2022/11/06 08:18:09;;;;;;;;;;;;;;;21.21;58.20;101231.41;5082771;28;1655;-62
2022/11/06 08:20:37;;;;;;;;;;;;;;;21.21;58.74;101237.94;5080185;28;1860;-62
2022/11/06 08:23:04;;;;;;;;;;;;;;;21.22;58.43;101233.66;5082264;28;1826;-62
2022/11/06 08:25:31;;;;;;;;;;;;;;;21.22;58.72;101244.44;5078030;28;1610;-62
2022/11/06 08:27:57;;;;;;;;;;;;;;;21.23;58.58;101229.38;5075122;28;1588;-62
2022/11/06 08:30:24;;;;;;;;;;;;;;;21.23;58.70;101243.75;5066010;28;1910;-62
2022/11/06 08:32:50;;;;;;;;;;;;;;;21.22;58.54;101238.66;5067300;28;1936;-62
2022/11/06 08:35:16;;;;;;;;;;;;;;;21.24;58.19;101238.75;5073518;28;1920;-62
2022/11/06 08:37:43;;;;;;;;;;;;;;;21.23;58.31;101232.25;5075635;28;1925;-62
2022/11/06 08:40:09;;;;;;;;;;;;;;;21.24;58.31;101228.00;5074217;28;2055;-62
2022/11/06 08:42:35;;;;;;;;;;;;;;;21.23;58.53;101226.47;5073016;28;2525;-61
2022/11/06 08:45:02;;;;;;;;;;;;;;;21.24;58.56;101222.22;5064173;28;2898;-62
2022/11/06 08:47:28;;;;;;;;;;;;;;;21.23;58.25;101219.97;5065499;28;3276;-62
2022/11/06 08:49:55;;;;;;;;;;;;;;;21.24;58.58;101222.22;5070919;28;2984;-62
2022/11/06 08:52:21;;;;;;;;;;;;;;;21.25;58.43;101223.69;5074824;28;2992;-62
2022/11/06 08:54:47;;;;;;;;;;;;;;;21.25;58.34;101226.59;5079096;28;1568;-62
2022/11/06 08:57:14;;;;;;;;;;;;;;;21.26;58.62;101225.22;5077224;28;2748;-61
2022/11/06 08:59:40;;;;;;;;;;;;;;;21.26;58.69;101225.22;5071292;28;2851;-62
2022/11/06 09:02:09;;;;;;;;;;;;;;;21.29;58.37;101226.03;5070801;28;2965;-62
2022/11/06 09:04:36;;;;;;;;;;;;;;;21.27;58.42;101220.94;5077228;28;2629;-62
2022/11/06 09:07:06;;;;;;;;;;;;;;;21.27;58.54;101215.16;5077647;28;2690;-62
2022/11/06 09:09:33;;;;;;;;;;;;;;;21.23;58.77;101220.72;5071981;28;2783;-61
2022/11/06 09:11:59;;;;;;;;;;;;;;;21.28;59.22;101216.66;5071117;28;1921;-62
2022/11/06 09:14:25;;;;;;;;;;;;;;;21.28;59.50;101205.16;5080265;28;2363;-62
2022/11/06 09:16:52;;;;;;;;;;;;;;;21.28;59.47;101219.56;5073105;28;1692;-61
2022/11/06 09:19:18;;;;;;;;;;;;;;;21.28;59.43;101228.19;5074182;28;1842;-61
2022/11/06 09:21:44;;;;;;;;;;;;;;;21.28;60.07;101210.91;5077238;28;1777;-61
2022/11/06 09:24:18;;;;;;;;;;;;;;;21.29;59.95;101218.16;5080666;28;1699;-61
2022/11/06 09:27:05;;;;;;;;;;;;;;;21.31;60.12;101215.38;5077187;28;1739;-61
2022/11/06 09:29:31;;;;;;;;;;;;;;;21.30;60.43;101216.78;5083694;28;1955;-61
2022/11/06 09:31:57;;;;;;;;;;;;;;;21.30;60.23;101225.41;5080893;28;1914;-61
2022/11/06 09:34:24;;;;;;;;;;;;;;;21.30;60.43;101225.41;5080413;28;1790;-61
2022/11/06 09:36:50;;;;;;;;;;;;;;;21.28;60.33;101222.44;5081242;28;1805;-61
2022/11/06 09:39:16;;;;;;;;;;;;;;;21.29;60.68;101226.78;5083422;28;1603;-61
2022/11/06 09:41:47;;;;;;;;;;;;;;;21.29;60.65;101218.16;5083298;28;2041;-61
2022/11/06 09:44:29;;;;;;;;;;;;;;;21.33;60.35;101215.47;5083930;28;1631;-61
2022/11/06 09:46:55;;;;;;;;;;;;;;;21.30;60.69;101225.41;5081664;28;1595;-61
2022/11/06 09:49:25;;;;;;;;;;;;;;;21.29;60.53;101217.41;5083134;28;1688;-61
2022/11/06 09:51:53;;;;;;;;;;;;;;;21.29;60.66;101215.25;5070067;28;1906;-61
2022/11/06 09:54:21;;;;;;;;;;;;;;;21.30;60.40;101219.66;5068844;28;1631;-61
2022/11/06 09:56:48;;;;;;;;;;;;;;;21.31;60.53;101212.47;5054318;28;1558;-61
2022/11/06 09:59:15;;;;;;;;;;;;;;;21.31;60.59;101209.59;5069173;28;1591;-61
2022/11/06 10:01:43;;;;;;;;;;;;;;;21.37;60.36;101211.28;5070027;28;1814;-61
2022/11/06 10:04:28;;;;;;;;;;;;;;;21.34;60.23;101202.53;5055632;28;1928;-62
2022/11/06 10:06:55;;;;;;;;;;;;;;;21.31;60.52;101203.84;5065091;28;1611;-61
2022/11/06 10:09:21;;;;;;;;;;;;;;;21.32;60.34;101211.06;5081540;28;1884;-61
2022/11/06 10:11:57;;;;;;;;;;;;;;;21.33;60.70;101212.59;5065788;28;1913;-61
2022/11/06 10:14:35;;;;;;;;;;;;;;;21.34;60.43;101207.56;5077050;28;1876;-62
2022/11/06 10:17:20;;;;;;;;;;;;;;;21.34;59.99;101202.53;5069674;28;1572;-61
2022/11/06 10:19:47;;;;;;;;;;;;;;;21.34;60.13;101202.53;5064994;28;1676;-62
2022/11/06 10:22:15;;;;;;;;;;;;;;;21.34;60.16;101191.00;5068348;28;1634;-64
2022/11/06 10:24:45;;;;;;;;;;;;;;;21.34;60.22;101188.13;5067731;28;1729;-60
2022/11/06 10:27:13;;;;;;;;;;;;;;;21.36;59.96;101192.53;5066471;28;1699;-61
2022/11/06 10:29:51;;;;;;;;;;;;;;;21.34;60.27;101182.38;5070026;28;1556;-61
2022/11/06 10:32:37;;;;;;;;;;;;;;;21.34;60.27;101173.72;5071091;28;1967;-63
2022/11/06 10:35:10;;;;;;;;;;;;;;;21.36;60.24;101169.47;5071144;28;1741;-64
2022/11/06 10:37:50;;;;;;;;;;;;;;;21.44;59.96;101179.28;5068982;28;1585;-64
2022/11/06 10:40:17;;;;;;;;;;;;;;;21.43;60.15;101168.38;5069110;28;2088;-62
2022/11/06 10:42:43;;;;;;;;;;;;;;;21.40;60.22;101158.91;5068731;28;1608;-64
2022/11/06 10:45:11;;;;;;;;;;;;;;;21.41;59.97;101160.38;5069610;28;1636;-62
2022/11/06 10:47:56;;;;;;;;;;;;;;;21.40;60.10;101158.16;5068302;28;1778;-61
2022/11/06 10:50:23;;;;;;;;;;;;;;;21.41;60.42;101148.13;5066386;28;1959;-61
2022/11/06 10:53:01;;;;;;;;;;;;;;;21.43;60.08;101151.09;5073014;28;1860;-63
2022/11/06 10:55:38;;;;;;;;;;;;;;;21.43;60.21;101142.47;5075486;28;1822;-62
2022/11/06 10:58:05;;;;;;;;;;;;;;;21.44;60.73;101141.06;5071883;28;1584;-61
2022/11/06 11:00:32;;;;;;;;;;;;;;;21.40;60.36;101146.63;5071704;28;1596;-60
2022/11/06 11:02:59;;;;;;;;;;;;;;;21.31;59.58;101134.72;5069271;28;1608;-61
2022/11/06 11:05:25;;;;;;;;;;;;;;;21.26;59.64;101138.81;5071396;28;2781;-61
2022/11/06 11:07:53;;;;;;;;;;;;;;;21.23;58.84;101131.44;5064801;28;2853;-61
2022/11/06 11:10:23;;;;;;;;;;;;;;;21.25;58.56;101136.56;5072870;28;1967;-61
2022/11/06 11:12:49;;;;;;;;;;;;;;;21.24;58.09;101127.19;5073462;28;2327;-60
2022/11/06 11:15:19;;;;;;;;;;;;;;;21.24;57.40;101132.94;5072074;28;2664;-60
2022/11/06 11:18:04;;;;;;;;;;;;;;;21.23;56.98;101128.56;5070464;28;2858;-61
2022/11/06 11:20:30;;;;;;;;;;;;;;;21.30;58.02;101127.47;5074508;28;1707;-61
2022/11/06 11:23:17;;;;;;;;;;;;;;;21.38;58.16;101120.59;5074360;28;2344;-61
2022/11/06 11:25:47;;;;;;;;;;;;;;;21.44;57.93;101123.78;5073252;28;1712;-61
2022/11/06 11:28:27;;;;;;;;;;;;;;;21.46;58.29;101123.88;5072511;28;2645;-61
2022/11/06 11:30:54;;;;;;;;;;;;;;;21.48;58.43;101123.97;5072598;28;2617;-61
2022/11/06 11:33:21;;;;;;;;;;;;;;;21.47;58.21;101117.47;5075920;28;2257;-61
2022/11/06 11:35:48;;;;;;;;;;;;;;;21.48;58.50;101106.69;5075500;28;2414;-61
2022/11/06 11:38:15;;;;;;;;;;;;;;;21.47;58.63;101113.84;5073704;28;1603;-61
2022/11/06 11:40:42;;;;;;;;;;;;;;;21.47;58.59;101105.94;5074137;28;1598;-61
2022/11/06 11:43:18;;;;;;;;;;;;;;;21.49;58.75;101102.41;5073747;28;1699;-61
2022/11/06 11:45:59;;;;;;;;;;;;;;;21.49;58.54;101096.66;5075625;28;1806;-61
2022/11/06 11:48:26;;;;;;;;;;;;;;;21.50;58.75;101112.53;5074627;28;2211;-61
2022/11/06 11:50:52;;;;;;;;;;;;;;;21.49;58.93;101103.16;5079801;28;1914;-61
2022/11/06 11:53:18;;;;;;;;;;;;;;;21.56;58.83;101094.78;5081923;28;1799;-61
2022/11/06 11:55:46;;;;;;;;;;;;;;;21.51;58.86;101096.75;5070532;28;1615;-61
2022/11/06 11:58:20;;;;;;;;;;;;;;;21.52;58.71;101089.59;5064579;28;3139;-62
2022/11/06 12:00:54;;;;;;;;;;;;;;;21.53;59.06;101077.41;5071563;28;1910;-61
2022/11/06 12:03:20;;;;;;;;;;;;;;;21.56;58.64;101078.25;5076499;28;2305;-61
2022/11/06 12:05:47;;;;;;;;;;;;;;;21.53;59.03;101073.75;5074853;28;3372;-61
2022/11/06 12:08:19;;;;;;;;;;;;;;;21.53;58.97;101068.00;5073850;28;2273;-61
2022/11/06 12:10:45;;;;;;;;;;;;;;;21.54;59.02;101075.28;5077900;28;1994;-62
2022/11/06 12:13:11;;;;;;;;;;;;;;;21.54;58.64;101069.50;5078216;28;2326;-62
2022/11/06 12:15:40;;;;;;;;;;;;;;;21.55;58.79;101070.97;5078673;28;1615;-61
2022/11/06 12:18:08;;;;;;;;;;;;;;;21.54;58.79;101070.25;5078072;28;1668;-60
2022/11/06 12:20:39;;;;;;;;;;;;;;;21.57;58.77;101062.44;5078637;28;1690;-61
2022/11/06 12:23:05;;;;;;;;;;;;;;;21.58;59.06;101057.41;5077809;28;1645;-62
2022/11/06 12:25:35;;;;;;;;;;;;;;;21.59;58.75;101053.88;5075767;28;1881;-61
2022/11/06 12:28:01;;;;;;;;;;;;;;;21.62;59.01;101052.56;5076811;28;1639;-60
2022/11/06 12:30:27;;;;;;;;;;;;;;;21.62;58.70;101049.69;5074815;28;1583;-60
2022/11/06 12:33:13;;;;;;;;;;;;;;;21.64;58.61;101055.53;5077013;28;1918;-60
2022/11/06 12:35:40;;;;;;;;;;;;;;;21.66;58.59;101046.97;5070669;28;1704;-61
2022/11/06 12:38:13;;;;;;;;;;;;;;;21.69;58.82;101044.94;5075424;28;1644;-60
2022/11/06 12:40:40;;;;;;;;;;;;;;;21.69;58.46;101051.47;5079060;28;2150;-60
2022/11/06 12:43:18;;;;;;;;;;;;;;;21.72;58.50;101049.41;5076809;28;1760;-60
2022/11/06 12:46:03;;;;;;;;;;;;;;;21.73;58.42;101034.31;5076545;28;1841;-60
2022/11/06 12:48:33;;;;;;;;;;;;;;;21.72;58.41;101038.63;5079224;28;1611;-60
2022/11/06 12:51:05;;;;;;;;;;;;;;;21.77;58.41;101035.91;5060059;28;1926;-60
2022/11/06 12:53:33;;;;;;;;;;;;;;;21.78;58.56;101034.50;5079196;28;1698;-60
2022/11/06 12:56:06;;;;;;;;;;;;;;;21.77;58.63;101030.16;5078010;28;1828;-61
2022/11/06 12:58:51;;;;;;;;;;;;;;;21.73;58.62;101027.81;5079880;28;1650;-60
2022/11/06 13:01:17;;;;;;;;;;;;;;;21.73;58.61;101022.78;5080530;28;1885;-60
2022/11/06 13:03:49;;;;;;;;;;;;;;;21.74;58.44;101021.41;5082349;28;1691;-60
2022/11/06 13:06:30;;;;;;;;;;;;;;;21.73;58.74;101017.03;5081464;28;1596;-60
2022/11/06 13:08:59;;;;;;;;;;;;;;;21.72;58.37;101015.56;5081022;28;1745;-60